sensor_id;sensor_type;location;lat;lon;timestamp;temperature;humidity
43049;DHT22;28673;44.412;11.918;2023-06-01T00:02:00;18.50;99.90
43049;DHT22;28673;44.412;11.918;2023-06-01T00:04:25;18.50;99.90
43049;DHT22;28673;44.412;11.918;2023-06-01T00:06:51;18.50;99.90
43049;DHT22;28673;44.412;11.918;2023-06-01T00:09:17;18.50;99.90
43049;DHT22;28673;44.412;11.918;2023-06-01T00:11:43;18.40;99.90
43049;DHT22;28673;44.412;11.918;2023-06-01T00:14:09;18.40;99.90
43049;DHT22;28673;44.412;11.918;2023-06-01T00:16:36;18.40;99.90
43049;DHT22;28673;44.412;11.918;2023-06-01T00:19:02;18.40;99.90
43049;DHT22;28673;44.412;11.918;2023-06-01T00:21:29;18.30;99.90
43049;DHT22;28673;44.412;11.918;2023-06-01T00:23:58;18.30;99.90
43049;DHT22;28673;44.412;11.918;2023-06-01T00:26:24;18.30;99.90
43049;DHT22;28673;44.412;11.918;2023-06-01T00:28:51;18.30;99.90
43049;DHT22;28673;44.412;11.918;2023-06-01T00:31:18;18.20;99.90
43049;DHT22;28673;44.412;11.918;2023-06-01T00:33:44;18.30;99.90
43049;DHT22;28673;44.412;11.918;2023-06-01T00:36:10;18.20;99.90
43049;DHT22;28673;44.412;11.918;2023-06-01T00:38:36;18.20;99.90
43049;DHT22;28673;44.412;11.918;2023-06-01T00:41:02;18.20;99.90
43049;DHT22;28673;44.412;11.918;2023-06-01T00:43:27;18.20;99.90
43049;DHT22;28673;44.412;11.918;2023-06-01T00:45:53;18.10;99.90
43049;DHT22;28673;44.412;11.918;2023-06-01T00:48:20;18.00;99.90
43049;DHT22;28673;44.412;11.918;2023-06-01T00:50:47;18.00;99.90
43049;DHT22;28673;44.412;11.918;2023-06-01T00:53:18;18.00;99.90
43049;DHT22;28673;44.412;11.918;2023-06-01T00:55:46;17.90;99.90
43049;DHT22;28673;44.412;11.918;2023-06-01T00:58:13;17.80;99.90
43049;DHT22;28673;44.412;11.918;2023-06-01T01:00:39;17.80;99.90
43049;DHT22;28673;44.412;11.918;2023-06-01T01:03:06;17.80;99.90
43049;DHT22;28673;44.412;11.918;2023-06-01T01:05:36;17.70;99.90
43049;DHT22;28673;44.412;11.918;2023-06-01T01:08:24;17.80;99.90
43049;DHT22;28673;44.412;11.918;2023-06-01T01:11:11;17.70;99.90
43049;DHT22;28673;44.412;11.918;2023-06-01T01:13:46;17.70;99.90
43049;DHT22;28673;44.412;11.918;2023-06-01T01:16:53;17.70;99.90
43049;DHT22;28673;44.412;11.918;2023-06-01T01:19:47;17.70;99.90
43049;DHT22;28673;44.412;11.918;2023-06-01T01:22:47;17.70;99.90
43049;DHT22;28673;44.412;11.918;2023-06-01T01:30:37;17.60;99.90
43049;DHT22;28673;44.412;11.918;2023-06-01T01:33:06;17.60;99.90
43049;DHT22;28673;44.412;11.918;2023-06-01T01:35:32;17.60;99.90
43049;DHT22;28673;44.412;11.918;2023-06-01T01:37:59;17.50;99.90
43049;DHT22;28673;44.412;11.918;2023-06-01T01:40:25;17.50;99.90
43049;DHT22;28673;44.412;11.918;2023-06-01T01:42:51;17.50;99.90
43049;DHT22;28673;44.412;11.918;2023-06-01T01:45:18;17.50;99.90
43049;DHT22;28673;44.412;11.918;2023-06-01T01:47:51;17.50;99.90
43049;DHT22;28673;44.412;11.918;2023-06-01T01:50:22;17.50;99.90
43049;DHT22;28673;44.412;11.918;2023-06-01T01:52:52;17.40;99.90
43049;DHT22;28673;44.412;11.918;2023-06-01T01:55:20;17.40;99.90
43049;DHT22;28673;44.412;11.918;2023-06-01T01:57:54;17.40;99.90
43049;DHT22;28673;44.412;11.918;2023-06-01T02:00:21;17.40;99.90
43049;DHT22;28673;44.412;11.918;2023-06-01T02:02:48;17.40;99.90
43049;DHT22;28673;44.412;11.918;2023-06-01T02:05:15;17.40;99.90
43049;DHT22;28673;44.412;11.918;2023-06-01T02:07:41;17.40;99.90
43049;DHT22;28673;44.412;11.918;2023-06-01T02:10:07;17.40;99.90
43049;DHT22;28673;44.412;11.918;2023-06-01T02:12:33;17.30;99.90
43049;DHT22;28673;44.412;11.918;2023-06-01T02:14:59;17.30;99.90
43049;DHT22;28673;44.412;11.918;2023-06-01T02:17:25;17.30;99.90
43049;DHT22;28673;44.412;11.918;2023-06-01T02:19:52;17.30;99.90
43049;DHT22;28673;44.412;11.918;2023-06-01T02:22:18;17.30;99.90
43049;DHT22;28673;44.412;11.918;2023-06-01T02:24:44;17.30;99.90
43049;DHT22;28673;44.412;11.918;2023-06-01T02:27:11;17.20;99.90
43049;DHT22;28673;44.412;11.918;2023-06-01T02:29:36;17.20;99.90
43049;DHT22;28673;44.412;11.918;2023-06-01T02:32:02;17.20;99.90
43049;DHT22;28673;44.412;11.918;2023-06-01T02:34:28;17.20;99.90
43049;DHT22;28673;44.412;11.918;2023-06-01T02:36:55;17.20;99.90
43049;DHT22;28673;44.412;11.918;2023-06-01T02:39:22;17.20;99.90
43049;DHT22;28673;44.412;11.918;2023-06-01T02:41:49;17.20;99.90
43049;DHT22;28673;44.412;11.918;2023-06-01T02:44:15;17.10;99.90
43049;DHT22;28673;44.412;11.918;2023-06-01T02:46:41;17.10;99.90
43049;DHT22;28673;44.412;11.918;2023-06-01T02:49:07;17.10;99.90
43049;DHT22;28673;44.412;11.918;2023-06-01T02:51:33;17.10;99.90
43049;DHT22;28673;44.412;11.918;2023-06-01T02:54:17;17.10;99.90
43049;DHT22;28673;44.412;11.918;2023-06-01T02:56:43;17.00;99.90
43049;DHT22;28673;44.412;11.918;2023-06-01T02:59:21;17.00;99.90
43049;DHT22;28673;44.412;11.918;2023-06-01T03:01:54;17.00;99.90
43049;DHT22;28673;44.412;11.918;2023-06-01T03:04:20;17.00;99.90
43049;DHT22;28673;44.412;11.918;2023-06-01T03:06:46;16.90;99.90
43049;DHT22;28673;44.412;11.918;2023-06-01T03:09:34;16.90;99.90
43049;DHT22;28673;44.412;11.918;2023-06-01T03:12:08;16.80;99.90
43049;DHT22;28673;44.412;11.918;2023-06-01T03:14:35;16.90;99.90
43049;DHT22;28673;44.412;11.918;2023-06-01T03:17:01;16.80;99.90
43049;DHT22;28673;44.412;11.918;2023-06-01T03:19:27;16.80;99.90
43049;DHT22;28673;44.412;11.918;2023-06-01T03:21:55;16.80;99.90
43049;DHT22;28673;44.412;11.918;2023-06-01T03:24:22;16.80;99.90
43049;DHT22;28673;44.412;11.918;2023-06-01T03:26:55;16.80;99.90
43049;DHT22;28673;44.412;11.918;2023-06-01T03:29:23;16.70;99.90
43049;DHT22;28673;44.412;11.918;2023-06-01T03:31:49;16.70;99.90
43049;DHT22;28673;44.412;11.918;2023-06-01T03:34:19;16.70;99.90
43049;DHT22;28673;44.412;11.918;2023-06-01T03:36:46;16.70;99.90
43049;DHT22;28673;44.412;11.918;2023-06-01T03:39:15;16.70;99.90
43049;DHT22;28673;44.412;11.918;2023-06-01T03:41:42;16.70;99.90
43049;DHT22;28673;44.412;11.918;2023-06-01T03:44:10;16.70;99.90
43049;DHT22;28673;44.412;11.918;2023-06-01T03:46:36;16.70;99.90
43049;DHT22;28673;44.412;11.918;2023-06-01T03:49:01;16.70;99.90
43049;DHT22;28673;44.412;11.918;2023-06-01T03:51:27;16.70;99.90
43049;DHT22;28673;44.412;11.918;2023-06-01T03:53:54;16.70;99.90
43049;DHT22;28673;44.412;11.918;2023-06-01T03:56:20;16.70;99.90
43049;DHT22;28673;44.412;11.918;2023-06-01T03:58:46;16.70;99.90
43049;DHT22;28673;44.412;11.918;2023-06-01T04:01:15;16.70;99.90
43049;DHT22;28673;44.412;11.918;2023-06-01T04:03:47;16.70;99.90
43049;DHT22;28673;44.412;11.918;2023-06-01T04:06:14;16.70;99.90
43049;DHT22;28673;44.412;11.918;2023-06-01T04:08:45;16.60;99.90
43049;DHT22;28673;44.412;11.918;2023-06-01T04:11:16;16.70;99.90
43049;DHT22;28673;44.412;11.918;2023-06-01T04:13:43;16.60;99.90
43049;DHT22;28673;44.412;11.918;2023-06-01T04:16:12;16.60;99.90
43049;DHT22;28673;44.412;11.918;2023-06-01T04:18:40;16.60;99.90
43049;DHT22;28673;44.412;11.918;2023-06-01T04:21:10;16.60;99.90
43049;DHT22;28673;44.412;11.918;2023-06-01T04:23:36;16.60;99.90
43049;DHT22;28673;44.412;11.918;2023-06-01T04:26:03;16.60;99.90
43049;DHT22;28673;44.412;11.918;2023-06-01T04:28:31;16.70;99.90
43049;DHT22;28673;44.412;11.918;2023-06-01T04:30:58;16.70;99.90
43049;DHT22;28673;44.412;11.918;2023-06-01T04:33:25;16.70;99.90
43049;DHT22;28673;44.412;11.918;2023-06-01T04:35:52;16.70;99.90
43049;DHT22;28673;44.412;11.918;2023-06-01T04:38:23;16.70;99.90
43049;DHT22;28673;44.412;11.918;2023-06-01T04:40:51;16.70;99.90
43049;DHT22;28673;44.412;11.918;2023-06-01T04:43:19;16.70;99.90
43049;DHT22;28673;44.412;11.918;2023-06-01T04:45:46;16.70;99.90
43049;DHT22;28673;44.412;11.918;2023-06-01T04:48:12;16.80;99.90
43049;DHT22;28673;44.412;11.918;2023-06-01T04:50:55;16.80;99.90
43049;DHT22;28673;44.412;11.918;2023-06-01T04:53:22;16.80;99.90
43049;DHT22;28673;44.412;11.918;2023-06-01T04:55:48;16.80;99.90
43049;DHT22;28673;44.412;11.918;2023-06-01T04:58:15;16.90;99.90
43049;DHT22;28673;44.412;11.918;2023-06-01T05:00:41;16.90;99.90
43049;DHT22;28673;44.412;11.918;2023-06-01T05:03:07;16.90;99.90
43049;DHT22;28673;44.412;11.918;2023-06-01T05:05:33;17.00;99.90
43049;DHT22;28673;44.412;11.918;2023-06-01T05:07:59;17.00;99.90
43049;DHT22;28673;44.412;11.918;2023-06-01T05:10:26;17.10;99.90
43049;DHT22;28673;44.412;11.918;2023-06-01T05:12:52;17.10;99.90
43049;DHT22;28673;44.412;11.918;2023-06-01T05:15:19;17.10;99.90
43049;DHT22;28673;44.412;11.918;2023-06-01T05:17:45;17.20;99.90
43049;DHT22;28673;44.412;11.918;2023-06-01T05:20:14;17.30;99.90
43049;DHT22;28673;44.412;11.918;2023-06-01T05:22:44;17.40;99.90
43049;DHT22;28673;44.412;11.918;2023-06-01T05:25:10;17.40;99.90
43049;DHT22;28673;44.412;11.918;2023-06-01T05:27:37;17.50;99.90
43049;DHT22;28673;44.412;11.918;2023-06-01T05:30:04;17.60;99.90
43049;DHT22;28673;44.412;11.918;2023-06-01T05:32:31;17.80;99.90
43049;DHT22;28673;44.412;11.918;2023-06-01T05:35:04;17.90;99.90
43049;DHT22;28673;44.412;11.918;2023-06-01T05:37:31;18.00;99.90
43049;DHT22;28673;44.412;11.918;2023-06-01T05:39:57;18.10;99.90
43049;DHT22;28673;44.412;11.918;2023-06-01T05:42:23;18.10;99.90
43049;DHT22;28673;44.412;11.918;2023-06-01T05:44:49;18.20;99.90
43049;DHT22;28673;44.412;11.918;2023-06-01T05:47:15;18.40;99.90
43049;DHT22;28673;44.412;11.918;2023-06-01T05:49:41;18.50;99.90
43049;DHT22;28673;44.412;11.918;2023-06-01T05:52:09;18.60;99.90
43049;DHT22;28673;44.412;11.918;2023-06-01T05:54:35;18.70;99.90
43049;DHT22;28673;44.412;11.918;2023-06-01T05:57:01;18.90;99.90
43049;DHT22;28673;44.412;11.918;2023-06-01T05:59:27;19.00;99.90
43049;DHT22;28673;44.412;11.918;2023-06-01T06:01:53;19.10;99.90
43049;DHT22;28673;44.412;11.918;2023-06-01T06:04:19;19.30;99.90
43049;DHT22;28673;44.412;11.918;2023-06-01T06:06:45;19.40;99.90
43049;DHT22;28673;44.412;11.918;2023-06-01T06:09:12;19.50;99.90
43049;DHT22;28673;44.412;11.918;2023-06-01T06:11:40;19.70;99.90
43049;DHT22;28673;44.412;11.918;2023-06-01T06:14:06;19.80;99.90
43049;DHT22;28673;44.412;11.918;2023-06-01T06:16:32;20.00;99.90
43049;DHT22;28673;44.412;11.918;2023-06-01T06:18:57;20.10;99.90
43049;DHT22;28673;44.412;11.918;2023-06-01T06:21:23;20.20;99.90
43049;DHT22;28673;44.412;11.918;2023-06-01T06:23:49;20.40;99.90
43049;DHT22;28673;44.412;11.918;2023-06-01T06:26:15;20.50;99.90
43049;DHT22;28673;44.412;11.918;2023-06-01T06:28:41;20.70;99.90
43049;DHT22;28673;44.412;11.918;2023-06-01T06:31:06;20.80;99.90
43049;DHT22;28673;44.412;11.918;2023-06-01T06:33:32;21.00;99.90
43049;DHT22;28673;44.412;11.918;2023-06-01T06:35:58;21.20;99.90
43049;DHT22;28673;44.412;11.918;2023-06-01T06:38:24;21.30;99.90
43049;DHT22;28673;44.412;11.918;2023-06-01T06:40:50;21.50;99.90
43049;DHT22;28673;44.412;11.918;2023-06-01T06:43:17;21.70;99.90
43049;DHT22;28673;44.412;11.918;2023-06-01T06:45:43;21.80;99.90
43049;DHT22;28673;44.412;11.918;2023-06-01T06:48:09;21.90;99.90
43049;DHT22;28673;44.412;11.918;2023-06-01T06:50:35;22.10;99.90
43049;DHT22;28673;44.412;11.918;2023-06-01T06:53:02;22.30;99.90
43049;DHT22;28673;44.412;11.918;2023-06-01T06:55:29;22.40;99.90
43049;DHT22;28673;44.412;11.918;2023-06-01T06:57:55;22.60;99.90
43049;DHT22;28673;44.412;11.918;2023-06-01T07:00:21;22.70;99.90
43049;DHT22;28673;44.412;11.918;2023-06-01T07:02:47;22.90;99.90
43049;DHT22;28673;44.412;11.918;2023-06-01T07:05:14;23.10;99.90
43049;DHT22;28673;44.412;11.918;2023-06-01T07:07:40;23.30;99.90
43049;DHT22;28673;44.412;11.918;2023-06-01T07:10:07;23.50;99.90
43049;DHT22;28673;44.412;11.918;2023-06-01T07:12:33;23.70;99.90
43049;DHT22;28673;44.412;11.918;2023-06-01T07:14:59;23.90;99.90
43049;DHT22;28673;44.412;11.918;2023-06-01T07:17:26;24.10;99.90
43049;DHT22;28673;44.412;11.918;2023-06-01T07:19:52;24.30;99.90
43049;DHT22;28673;44.412;11.918;2023-06-01T07:22:17;24.50;99.90
43049;DHT22;28673;44.412;11.918;2023-06-01T07:24:43;24.70;99.90
43049;DHT22;28673;44.412;11.918;2023-06-01T07:27:10;24.90;99.90
43049;DHT22;28673;44.412;11.918;2023-06-01T07:29:36;25.10;99.90
43049;DHT22;28673;44.412;11.918;2023-06-01T07:32:02;25.30;99.90
43049;DHT22;28673;44.412;11.918;2023-06-01T07:34:28;25.50;99.90
43049;DHT22;28673;44.412;11.918;2023-06-01T07:36:54;25.70;99.80
43049;DHT22;28673;44.412;11.918;2023-06-01T07:39:24;25.90;99.40
43049;DHT22;28673;44.412;11.918;2023-06-01T07:41:50;26.10;99.20
43049;DHT22;28673;44.412;11.918;2023-06-01T07:44:19;26.20;98.30
43049;DHT22;28673;44.412;11.918;2023-06-01T07:46:46;26.40;98.30
43049;DHT22;28673;44.412;11.918;2023-06-01T07:49:13;26.60;98.30
43049;DHT22;28673;44.412;11.918;2023-06-01T07:51:42;26.80;98.10
43049;DHT22;28673;44.412;11.918;2023-06-01T07:54:09;27.00;97.70
43049;DHT22;28673;44.412;11.918;2023-06-01T07:56:35;27.20;97.50
43049;DHT22;28673;44.412;11.918;2023-06-01T07:59:01;27.40;97.10
43049;DHT22;28673;44.412;11.918;2023-06-01T08:01:27;27.60;96.90
43049;DHT22;28673;44.412;11.918;2023-06-01T08:03:53;27.70;96.40
43049;DHT22;28673;44.412;11.918;2023-06-01T08:06:21;27.90;96.50
43049;DHT22;28673;44.412;11.918;2023-06-01T08:08:48;28.10;96.00
43049;DHT22;28673;44.412;11.918;2023-06-01T08:11:15;28.30;95.70
43049;DHT22;28673;44.412;11.918;2023-06-01T08:13:41;28.50;95.30
43049;DHT22;28673;44.412;11.918;2023-06-01T08:16:11;28.60;94.50
43049;DHT22;28673;44.412;11.918;2023-06-01T08:18:38;28.70;94.50
43049;DHT22;28673;44.412;11.918;2023-06-01T08:21:04;28.80;94.30
43049;DHT22;28673;44.412;11.918;2023-06-01T08:23:31;28.90;93.50
43049;DHT22;28673;44.412;11.918;2023-06-01T08:25:57;28.90;93.40
43049;DHT22;28673;44.412;11.918;2023-06-01T08:28:22;29.00;93.10
43049;DHT22;28673;44.412;11.918;2023-06-01T08:30:48;29.20;93.20
43049;DHT22;28673;44.412;11.918;2023-06-01T08:33:14;29.30;93.30
43049;DHT22;28673;44.412;11.918;2023-06-01T08:35:40;29.50;92.80
43049;DHT22;28673;44.412;11.918;2023-06-01T08:38:06;29.60;92.50
43049;DHT22;28673;44.412;11.918;2023-06-01T08:40:32;29.80;91.70
43049;DHT22;28673;44.412;11.918;2023-06-01T08:43:05;29.90;92.10
43049;DHT22;28673;44.412;11.918;2023-06-01T08:45:36;30.00;92.30
43049;DHT22;28673;44.412;11.918;2023-06-01T08:48:05;30.30;91.50
43049;DHT22;28673;44.412;11.918;2023-06-01T08:50:34;30.40;91.00
43049;DHT22;28673;44.412;11.918;2023-06-01T08:53:01;30.40;90.70
43049;DHT22;28673;44.412;11.918;2023-06-01T08:55:28;30.70;91.40
43049;DHT22;28673;44.412;11.918;2023-06-01T08:57:54;30.90;90.30
43049;DHT22;28673;44.412;11.918;2023-06-01T09:00:20;31.10;90.00
43049;DHT22;28673;44.412;11.918;2023-06-01T09:02:46;31.20;88.90
43049;DHT22;28673;44.412;11.918;2023-06-01T09:05:12;31.50;88.50
43049;DHT22;28673;44.412;11.918;2023-06-01T09:07:39;31.70;87.90
43049;DHT22;28673;44.412;11.918;2023-06-01T09:10:06;32.00;88.20
43049;DHT22;28673;44.412;11.918;2023-06-01T09:12:32;32.10;87.20
43049;DHT22;28673;44.412;11.918;2023-06-01T09:15:14;32.30;86.80
43049;DHT22;28673;44.412;11.918;2023-06-01T09:17:45;32.40;84.30
43049;DHT22;28673;44.412;11.918;2023-06-01T09:20:23;32.50;85.90
43049;DHT22;28673;44.412;11.918;2023-06-01T09:22:50;32.70;84.70
43049;DHT22;28673;44.412;11.918;2023-06-01T09:25:16;32.90;85.00
43049;DHT22;28673;44.412;11.918;2023-06-01T09:27:47;33.10;84.10
43049;DHT22;28673;44.412;11.918;2023-06-01T09:30:15;33.30;81.40
43049;DHT22;28673;44.412;11.918;2023-06-01T09:32:42;33.40;81.80
43049;DHT22;28673;44.412;11.918;2023-06-01T09:35:08;33.50;81.80
43049;DHT22;28673;44.412;11.918;2023-06-01T09:37:37;33.70;81.30
43049;DHT22;28673;44.412;11.918;2023-06-01T09:40:16;33.80;80.40
43049;DHT22;28673;44.412;11.918;2023-06-01T09:42:42;33.90;80.30
43049;DHT22;28673;44.412;11.918;2023-06-01T09:45:18;34.10;81.00
43049;DHT22;28673;44.412;11.918;2023-06-01T09:47:44;33.80;78.40
43049;DHT22;28673;44.412;11.918;2023-06-01T09:50:10;33.90;79.10
43049;DHT22;28673;44.412;11.918;2023-06-01T09:52:37;34.00;78.70
43049;DHT22;28673;44.412;11.918;2023-06-01T09:55:07;34.00;78.10
43049;DHT22;28673;44.412;11.918;2023-06-01T09:57:33;34.00;76.90
43049;DHT22;28673;44.412;11.918;2023-06-01T10:00:01;34.00;77.90
43049;DHT22;28673;44.412;11.918;2023-06-01T10:02:32;33.90;76.40
43049;DHT22;28673;44.412;11.918;2023-06-01T10:05:00;33.80;77.10
43049;DHT22;28673;44.412;11.918;2023-06-01T10:07:30;33.80;77.80
43049;DHT22;28673;44.412;11.918;2023-06-01T10:10:00;34.00;76.80
43049;DHT22;28673;44.412;11.918;2023-06-01T10:12:28;34.20;76.10
43049;DHT22;28673;44.412;11.918;2023-06-01T10:14:55;34.40;76.00
43049;DHT22;28673;44.412;11.918;2023-06-01T10:17:22;34.70;75.60
43049;DHT22;28673;44.412;11.918;2023-06-01T10:19:48;34.80;76.50
43049;DHT22;28673;44.412;11.918;2023-06-01T10:22:14;35.10;75.10
43049;DHT22;28673;44.412;11.918;2023-06-01T10:24:43;35.30;74.30
43049;DHT22;28673;44.412;11.918;2023-06-01T10:27:22;35.50;73.70
43049;DHT22;28673;44.412;11.918;2023-06-01T10:29:49;35.70;72.60
43049;DHT22;28673;44.412;11.918;2023-06-01T10:32:42;35.90;73.00
43049;DHT22;28673;44.412;11.918;2023-06-01T10:40:43;36.70;71.10
43049;DHT22;28673;44.412;11.918;2023-06-01T10:48:58;37.30;69.90
43049;DHT22;28673;44.412;11.918;2023-06-01T10:51:24;37.60;70.10
43049;DHT22;28673;44.412;11.918;2023-06-01T10:53:50;37.80;69.40
43049;DHT22;28673;44.412;11.918;2023-06-01T10:56:18;37.80;68.50
43049;DHT22;28673;44.412;11.918;2023-06-01T10:58:47;37.80;68.40
43049;DHT22;28673;44.412;11.918;2023-06-01T11:01:18;37.90;67.70
43049;DHT22;28673;44.412;11.918;2023-06-01T11:03:47;38.00;67.00
43049;DHT22;28673;44.412;11.918;2023-06-01T11:06:35;37.80;67.10
43049;DHT22;28673;44.412;11.918;2023-06-01T11:09:09;37.80;66.40
43049;DHT22;28673;44.412;11.918;2023-06-01T11:14:27;38.30;66.70
43049;DHT22;28673;44.412;11.918;2023-06-01T11:17:24;38.30;66.50
43049;DHT22;28673;44.412;11.918;2023-06-01T11:19:44;38.30;66.40
43049;DHT22;28673;44.412;11.918;2023-06-01T11:22:10;38.20;66.10
43049;DHT22;28673;44.412;11.918;2023-06-01T11:24:37;37.90;66.10
43049;DHT22;28673;44.412;11.918;2023-06-01T11:27:08;37.20;66.10
43049;DHT22;28673;44.412;11.918;2023-06-01T11:29:34;36.70;66.80
43049;DHT22;28673;44.412;11.918;2023-06-01T11:32:03;36.40;66.90
43049;DHT22;28673;44.412;11.918;2023-06-01T11:37:18;35.60;66.80
43049;DHT22;28673;44.412;11.918;2023-06-01T11:39:44;35.40;67.30
43049;DHT22;28673;44.412;11.918;2023-06-01T11:42:14;35.60;67.90
43049;DHT22;28673;44.412;11.918;2023-06-01T11:44:42;35.70;68.00
43049;DHT22;28673;44.412;11.918;2023-06-01T11:47:09;36.00;67.90
43049;DHT22;28673;44.412;11.918;2023-06-01T11:49:45;36.30;68.10
43049;DHT22;28673;44.412;11.918;2023-06-01T11:52:13;36.60;67.00
43049;DHT22;28673;44.412;11.918;2023-06-01T11:54:39;36.80;66.50
43049;DHT22;28673;44.412;11.918;2023-06-01T11:57:05;36.70;65.50
43049;DHT22;28673;44.412;11.918;2023-06-01T11:59:38;36.50;65.90
43049;DHT22;28673;44.412;11.918;2023-06-01T12:02:17;36.30;65.80
43049;DHT22;28673;44.412;11.918;2023-06-01T12:04:54;36.00;65.30
43049;DHT22;28673;44.412;11.918;2023-06-01T12:07:21;35.50;64.20
43049;DHT22;28673;44.412;11.918;2023-06-01T12:09:47;34.90;66.40
43049;DHT22;28673;44.412;11.918;2023-06-01T12:12:13;34.50;67.30
43049;DHT22;28673;44.412;11.918;2023-06-01T12:14:39;34.20;67.70
43049;DHT22;28673;44.412;11.918;2023-06-01T12:17:06;33.80;68.20
43049;DHT22;28673;44.412;11.918;2023-06-01T12:19:31;33.50;68.90
43049;DHT22;28673;44.412;11.918;2023-06-01T12:21:58;33.30;69.40
43049;DHT22;28673;44.412;11.918;2023-06-01T12:24:32;33.10;69.50
43049;DHT22;28673;44.412;11.918;2023-06-01T12:26:59;33.10;70.10
43049;DHT22;28673;44.412;11.918;2023-06-01T12:29:54;33.20;70.60
43049;DHT22;28673;44.412;11.918;2023-06-01T12:32:23;33.40;71.40
43049;DHT22;28673;44.412;11.918;2023-06-01T12:35:05;33.60;70.20
43049;DHT22;28673;44.412;11.918;2023-06-01T12:37:33;34.00;70.20
43049;DHT22;28673;44.412;11.918;2023-06-01T12:40:00;34.40;69.50
43049;DHT22;28673;44.412;11.918;2023-06-01T12:42:38;34.80;69.20
43049;DHT22;28673;44.412;11.918;2023-06-01T12:45:05;35.10;68.60
43049;DHT22;28673;44.412;11.918;2023-06-01T12:47:39;35.30;69.30
43049;DHT22;28673;44.412;11.918;2023-06-01T12:50:07;35.40;68.00
43049;DHT22;28673;44.412;11.918;2023-06-01T12:52:34;35.40;66.90
43049;DHT22;28673;44.412;11.918;2023-06-01T12:55:00;35.40;67.20
43049;DHT22;28673;44.412;11.918;2023-06-01T12:57:28;35.10;67.30
43049;DHT22;28673;44.412;11.918;2023-06-01T12:59:54;34.70;67.30
43049;DHT22;28673;44.412;11.918;2023-06-01T13:02:20;34.50;68.00
43049;DHT22;28673;44.412;11.918;2023-06-01T13:04:46;34.20;67.80
43049;DHT22;28673;44.412;11.918;2023-06-01T13:07:11;34.10;68.10
43049;DHT22;28673;44.412;11.918;2023-06-01T13:09:37;33.90;68.80
43049;DHT22;28673;44.412;11.918;2023-06-01T13:12:03;33.80;68.90
43049;DHT22;28673;44.412;11.918;2023-06-01T13:14:30;33.90;68.50
43049;DHT22;28673;44.412;11.918;2023-06-01T13:16:56;34.10;68.80
43049;DHT22;28673;44.412;11.918;2023-06-01T13:19:22;34.30;68.00
43049;DHT22;28673;44.412;11.918;2023-06-01T13:21:51;34.60;67.90
43049;DHT22;28673;44.412;11.918;2023-06-01T13:24:17;34.70;67.20
43049;DHT22;28673;44.412;11.918;2023-06-01T13:26:43;34.80;67.70
43049;DHT22;28673;44.412;11.918;2023-06-01T13:29:10;34.80;66.90
43049;DHT22;28673;44.412;11.918;2023-06-01T13:31:36;35.00;66.20
43049;DHT22;28673;44.412;11.918;2023-06-01T13:34:03;35.20;66.30
43049;DHT22;28673;44.412;11.918;2023-06-01T13:36:30;35.20;66.80
43049;DHT22;28673;44.412;11.918;2023-06-01T13:38:56;35.20;67.20
43049;DHT22;28673;44.412;11.918;2023-06-01T13:41:23;35.20;67.20
43049;DHT22;28673;44.412;11.918;2023-06-01T13:43:48;35.00;67.00
43049;DHT22;28673;44.412;11.918;2023-06-01T13:46:14;35.00;68.40
43049;DHT22;28673;44.412;11.918;2023-06-01T13:48:40;35.10;67.60
43049;DHT22;28673;44.412;11.918;2023-06-01T13:51:06;35.10;66.50
43049;DHT22;28673;44.412;11.918;2023-06-01T13:53:33;35.20;66.00
43049;DHT22;28673;44.412;11.918;2023-06-01T13:55:59;35.20;66.10
43049;DHT22;28673;44.412;11.918;2023-06-01T13:58:25;35.40;66.50
43049;DHT22;28673;44.412;11.918;2023-06-01T14:00:51;35.60;65.30
43049;DHT22;28673;44.412;11.918;2023-06-01T14:03:17;35.70;67.30
43049;DHT22;28673;44.412;11.918;2023-06-01T14:05:43;35.90;66.60
43049;DHT22;28673;44.412;11.918;2023-06-01T14:08:09;36.10;64.50
43049;DHT22;28673;44.412;11.918;2023-06-01T14:10:35;36.20;65.80
43049;DHT22;28673;44.412;11.918;2023-06-01T14:13:01;36.20;64.40
43049;DHT22;28673;44.412;11.918;2023-06-01T14:15:27;36.10;64.90
43049;DHT22;28673;44.412;11.918;2023-06-01T14:17:53;36.10;64.70
43049;DHT22;28673;44.412;11.918;2023-06-01T14:20:19;36.00;65.20
43049;DHT22;28673;44.412;11.918;2023-06-01T14:22:45;35.90;65.50
43049;DHT22;28673;44.412;11.918;2023-06-01T14:25:11;36.10;65.10
43049;DHT22;28673;44.412;11.918;2023-06-01T14:27:39;36.30;66.00
43049;DHT22;28673;44.412;11.918;2023-06-01T14:30:06;36.60;65.00
43049;DHT22;28673;44.412;11.918;2023-06-01T14:32:32;36.70;64.90
43049;DHT22;28673;44.412;11.918;2023-06-01T14:34:58;36.50;64.30
43049;DHT22;28673;44.412;11.918;2023-06-01T14:37:24;36.40;64.10
43049;DHT22;28673;44.412;11.918;2023-06-01T14:39:50;36.10;64.10
43049;DHT22;28673;44.412;11.918;2023-06-01T14:42:17;35.70;64.50
43049;DHT22;28673;44.412;11.918;2023-06-01T14:44:43;35.60;65.80
43049;DHT22;28673;44.412;11.918;2023-06-01T14:47:09;35.40;66.40
43049;DHT22;28673;44.412;11.918;2023-06-01T14:49:40;35.40;66.60
43049;DHT22;28673;44.412;11.918;2023-06-01T14:52:06;35.30;65.60
43049;DHT22;28673;44.412;11.918;2023-06-01T14:54:32;35.40;66.30
43049;DHT22;28673;44.412;11.918;2023-06-01T14:56:58;35.60;65.90
43049;DHT22;28673;44.412;11.918;2023-06-01T14:59:25;35.60;65.20
43049;DHT22;28673;44.412;11.918;2023-06-01T15:01:51;35.70;65.00
43049;DHT22;28673;44.412;11.918;2023-06-01T15:04:17;35.90;63.80
43049;DHT22;28673;44.412;11.918;2023-06-01T15:06:43;36.20;64.50
43049;DHT22;28673;44.412;11.918;2023-06-01T15:09:09;36.30;64.00
43049;DHT22;28673;44.412;11.918;2023-06-01T15:11:35;36.30;63.00
43049;DHT22;28673;44.412;11.918;2023-06-01T15:14:01;36.30;63.90
43049;DHT22;28673;44.412;11.918;2023-06-01T15:16:26;36.40;64.00
43049;DHT22;28673;44.412;11.918;2023-06-01T15:18:53;36.40;64.40
43049;DHT22;28673;44.412;11.918;2023-06-01T15:21:19;36.40;63.20
43049;DHT22;28673;44.412;11.918;2023-06-01T15:23:45;36.50;63.80
43049;DHT22;28673;44.412;11.918;2023-06-01T15:26:11;36.50;64.20
43049;DHT22;28673;44.412;11.918;2023-06-01T15:28:36;36.50;64.00
43049;DHT22;28673;44.412;11.918;2023-06-01T15:31:03;36.50;63.60
43049;DHT22;28673;44.412;11.918;2023-06-01T15:33:28;36.50;64.10
43049;DHT22;28673;44.412;11.918;2023-06-01T15:35:54;36.60;62.30
43049;DHT22;28673;44.412;11.918;2023-06-01T15:38:20;36.70;62.20
43049;DHT22;28673;44.412;11.918;2023-06-01T15:40:46;36.70;62.40
43049;DHT22;28673;44.412;11.918;2023-06-01T15:43:13;36.90;62.40